Time;durP1;ratioP1;P1;durP2;ratioP2;P2;SDS_P1;SDS_P2;PMS_P1;PMS_P2;Temp;Humidity;BMP_temperature;BMP_pressure;BME280_temperature;BME280_humidity;BME280_pressure;Samples;Min_cycle;Max_cycle;Signal;HPM_P1;HPM_P2
2022/09/28 00:01:26;;;;;;;;;;;15.60;99.90;;;;;;5096330;28;19908;-77
2022/09/28 00:03:53;;;;;;;;;;;15.60;99.90;;;;;;5096530;28;19908;-77
2022/09/28 00:06:20;;;;;;;;;;;15.50;99.90;;;;;;5096435;28;19918;-77
2022/09/28 00:08:46;;;;;;;;;;;15.50;99.90;;;;;;5096282;28;19916;-78
2022/09/28 00:11:14;;;;;;;;;;;15.60;99.90;;;;;;5095863;28;19961;-77
2022/09/28 00:13:41;;;;;;;;;;;15.60;99.90;;;;;;5096155;28;19908;-77
2022/09/28 00:16:07;;;;;;;;;;;15.60;99.90;;;;;;5096483;28;19908;-77
2022/09/28 00:18:34;;;;;;;;;;;15.70;99.90;;;;;;5096133;28;19909;-79
2022/09/28 00:21:00;;;;;;;;;;;15.80;99.90;;;;;;5095994;28;19908;-78
2022/09/28 00:23:26;;;;;;;;;;;15.80;99.90;;;;;;5094612;28;20425;-79
2022/09/28 00:25:51;;;;;;;;;;;15.90;99.90;;;;;;5094566;28;19908;-78
2022/09/28 00:28:17;;;;;;;;;;;15.90;99.90;;;;;;5096376;28;19912;-78
2022/09/28 00:30:42;;;;;;;;;;;15.90;99.90;;;;;;5095727;28;19912;-76
2022/09/28 00:33:08;;;;;;;;;;;15.80;99.90;;;;;;5095833;28;19912;-81
2022/09/28 00:35:34;;;;;;;;;;;15.80;99.90;;;;;;5095727;28;19948;-81
2022/09/28 00:38:01;;;;;;;;;;;15.80;99.90;;;;;;5095680;28;19973;-79
2022/09/28 00:40:26;;;;;;;;;;;15.70;99.90;;;;;;5095747;28;19908;-78
2022/09/28 00:42:52;;;;;;;;;;;15.60;99.90;;;;;;5095703;28;19931;-77
2022/09/28 00:45:18;;;;;;;;;;;15.50;99.90;;;;;;5095478;28;19908;-80
2022/09/28 00:47:44;;;;;;;;;;;15.60;99.90;;;;;;5095518;28;19992;-77
2022/09/28 00:50:13;;;;;;;;;;;15.50;99.90;;;;;;5095143;28;19924;-78
2022/09/28 00:52:45;;;;;;;;;;;15.40;99.90;;;;;;5094516;28;19912;-76
2022/09/28 00:55:13;;;;;;;;;;;15.40;99.90;;;;;;5094020;28;19947;-80
2022/09/28 00:57:40;;;;;;;;;;;15.50;99.90;;;;;;5095532;28;20372;-79
2022/09/28 01:00:06;;;;;;;;;;;15.50;99.90;;;;;;5095227;28;19908;-78
2022/09/28 01:02:32;;;;;;;;;;;15.50;99.90;;;;;;5095510;28;19983;-79
2022/09/28 01:04:58;;;;;;;;;;;15.50;99.90;;;;;;5095152;28;19915;-78
2022/09/28 01:07:24;;;;;;;;;;;15.60;99.90;;;;;;5095121;28;19955;-79
2022/09/28 01:09:50;;;;;;;;;;;15.60;99.90;;;;;;5095174;28;19947;-80
2022/09/28 01:12:15;;;;;;;;;;;15.60;99.90;;;;;;5095176;28;19915;-76
2022/09/28 01:14:41;;;;;;;;;;;15.60;99.90;;;;;;5093652;28;19999;-77
2022/09/28 01:17:15;;;;;;;;;;;15.60;99.90;;;;;;5094912;28;19977;-78
2022/09/28 01:19:50;;;;;;;;;;;15.60;99.90;;;;;;5094852;28;20003;-79
2022/09/28 01:22:21;;;;;;;;;;;15.60;99.90;;;;;;5094771;28;19916;-77
2022/09/28 01:24:52;;;;;;;;;;;15.60;99.90;;;;;;5094838;28;20360;-80
2022/09/28 01:27:36;;;;;;;;;;;15.60;99.90;;;;;;5095248;28;20459;-79
2022/09/28 01:30:06;;;;;;;;;;;15.60;99.90;;;;;;5094547;28;19912;-79
2022/09/28 01:32:40;;;;;;;;;;;15.60;99.90;;;;;;5094558;28;19951;-78
2022/09/28 01:35:05;;;;;;;;;;;15.60;99.90;;;;;;5094551;28;19908;-78
2022/09/28 01:37:53;;;;;;;;;;;15.60;99.90;;;;;;5094546;28;19915;-79
2022/09/28 01:40:22;;;;;;;;;;;15.60;99.90;;;;;;5094740;28;19912;-78
2022/09/28 01:42:50;;;;;;;;;;;15.50;99.90;;;;;;5093187;28;19908;-80
2022/09/28 01:45:22;;;;;;;;;;;15.50;99.90;;;;;;5093023;28;19915;-78
2022/09/28 01:47:48;;;;;;;;;;;15.50;99.90;;;;;;5094375;28;19915;-80
2022/09/28 01:50:16;;;;;;;;;;;15.50;99.90;;;;;;5094169;28;20010;-76
2022/09/28 01:52:52;;;;;;;;;;;15.50;99.90;;;;;;5094253;28;19909;-78
2022/09/28 01:55:47;;;;;;;;;;;15.60;99.90;;;;;;5094211;28;19908;-78
2022/09/28 01:58:20;;;;;;;;;;;15.60;99.90;;;;;;5080795;28;20208;-79
2022/09/28 02:00:48;;;;;;;;;;;15.60;99.90;;;;;;5094479;28;19951;-80
2022/09/28 02:03:16;;;;;;;;;;;15.60;99.90;;;;;;5094031;28;19915;-78
2022/09/28 02:05:47;;;;;;;;;;;15.40;99.90;;;;;;5094242;28;19915;-77
2022/09/28 02:08:20;;;;;;;;;;;15.20;99.90;;;;;;5094225;28;19994;-78
2022/09/28 02:10:49;;;;;;;;;;;15.00;99.90;;;;;;5093995;28;20286;-81
2022/09/28 02:13:24;;;;;;;;;;;14.90;99.90;;;;;;5092691;28;20444;-79
2022/09/28 02:15:57;;;;;;;;;;;14.90;99.90;;;;;;5094211;28;19908;-79
2022/09/28 02:18:23;;;;;;;;;;;14.90;99.90;;;;;;5093928;28;20343;-78
2022/09/28 02:20:59;;;;;;;;;;;14.80;99.90;;;;;;5093897;28;19954;-78
2022/09/28 02:23:27;;;;;;;;;;;14.80;99.90;;;;;;5094100;28;19908;-77
2022/09/28 02:25:54;;;;;;;;;;;14.80;99.90;;;;;;5093966;28;19908;-80
2022/09/28 02:28:20;;;;;;;;;;;14.80;99.90;;;;;;5094046;28;19915;-80
2022/09/28 02:30:45;;;;;;;;;;;14.80;99.90;;;;;;5093694;28;19912;-80
2022/09/28 02:33:12;;;;;;;;;;;14.80;99.90;;;;;;5092486;28;19915;-79
2022/09/28 02:35:39;;;;;;;;;;;14.80;99.90;;;;;;5093867;28;19912;-77
2022/09/28 02:38:04;;;;;;;;;;;14.80;99.90;;;;;;5093903;28;20311;-78
2022/09/28 02:40:32;;;;;;;;;;;14.80;99.90;;;;;;5093695;28;19908;-77
2022/09/28 02:43:21;;;;;;;;;;;14.80;99.90;;;;;;5093666;28;19908;-77
2022/09/28 02:45:50;;;;;;;;;;;14.90;99.90;;;;;;5085254;28;20364;-76
2022/09/28 02:48:15;;;;;;;;;;;14.90;99.90;;;;;;5092312;28;20265;-79
2022/09/28 02:50:58;;;;;;;;;;;14.70;99.90;;;;;;5093323;28;20015;-79
2022/09/28 02:53:32;;;;;;;;;;;14.60;99.90;;;;;;5094024;28;19912;-77
2022/09/28 02:55:58;;;;;;;;;;;14.70;99.90;;;;;;5093549;28;20004;-78
2022/09/28 02:58:42;;;;;;;;;;;14.70;99.90;;;;;;5093595;28;19948;-76
2022/09/28 03:01:10;;;;;;;;;;;14.80;99.90;;;;;;5093709;28;19920;-80
2022/09/28 03:03:52;;;;;;;;;;;14.70;99.90;;;;;;5093497;28;20360;-77
2022/09/28 03:06:23;;;;;;;;;;;14.70;99.90;;;;;;5093439;28;19908;-77
2022/09/28 03:08:55;;;;;;;;;;;14.80;99.90;;;;;;5093338;28;19920;-80
2022/09/28 03:11:23;;;;;;;;;;;14.70;99.90;;;;;;5093384;28;19930;-81
2022/09/28 03:13:49;;;;;;;;;;;14.70;99.90;;;;;;5093392;28;19966;-78
2022/09/28 03:16:16;;;;;;;;;;;14.60;99.90;;;;;;5095726;28;20361;-78
2022/09/28 03:18:42;;;;;;;;;;;14.60;99.90;;;;;;5097373;28;19915;-80
2022/09/28 03:21:09;;;;;;;;;;;14.60;99.90;;;;;;5097248;28;19908;-78
2022/09/28 03:23:35;;;;;;;;;;;14.60;99.90;;;;;;5097140;28;19913;-77
2022/09/28 03:26:00;;;;;;;;;;;14.60;99.90;;;;;;5097379;28;19915;-79
2022/09/28 03:28:27;;;;;;;;;;;14.50;99.90;;;;;;5097544;28;19908;-77
2022/09/28 03:30:52;;;;;;;;;;;14.30;99.90;;;;;;5096891;28;19973;-81
2022/09/28 03:33:18;;;;;;;;;;;14.20;99.90;;;;;;5096909;28;20334;-80
2022/09/28 03:35:47;;;;;;;;;;;14.30;99.90;;;;;;5097267;28;19961;-80
2022/09/28 03:38:13;;;;;;;;;;;14.50;99.90;;;;;;5096812;28;19908;-79
2022/09/28 03:40:39;;;;;;;;;;;14.50;99.90;;;;;;5096936;28;20386;-77
2022/09/28 03:43:04;;;;;;;;;;;14.50;99.90;;;;;;5096779;28;19908;-79
2022/09/28 03:45:30;;;;;;;;;;;14.50;99.90;;;;;;5096621;28;19908;-77
2022/09/28 03:47:55;;;;;;;;;;;14.60;99.90;;;;;;5096626;28;19909;-78
2022/09/28 03:50:21;;;;;;;;;;;14.50;99.90;;;;;;5096494;28;19927;-79
2022/09/28 03:52:47;;;;;;;;;;;14.50;99.90;;;;;;5096565;28;19919;-80
2022/09/28 03:55:12;;;;;;;;;;;14.40;99.90;;;;;;5096578;28;19974;-80
2022/09/28 03:57:38;;;;;;;;;;;14.30;99.90;;;;;;5096491;28;19912;-79
2022/09/28 04:00:04;;;;;;;;;;;14.20;99.90;;;;;;5096467;28;19915;-76
2022/09/28 04:02:29;;;;;;;;;;;14.00;99.90;;;;;;5096704;28;19935;-81
2022/09/28 04:04:55;;;;;;;;;;;14.00;99.90;;;;;;5095094;28;19909;-76
2022/09/28 04:07:21;;;;;;;;;;;13.90;99.90;;;;;;5096487;28;19908;-78
2022/09/28 04:09:47;;;;;;;;;;;13.90;99.90;;;;;;5096166;28;19912;-79
2022/09/28 04:12:12;;;;;;;;;;;13.90;99.90;;;;;;5096168;28;19915;-77
2022/09/28 04:14:38;;;;;;;;;;;14.00;99.90;;;;;;5096506;28;19938;-80
2022/09/28 04:17:06;;;;;;;;;;;14.10;99.90;;;;;;5096042;28;19908;-80
2022/09/28 04:19:31;;;;;;;;;;;14.10;99.90;;;;;;5094768;28;19999;-77
2022/09/28 04:21:57;;;;;;;;;;;14.20;99.90;;;;;;5095962;28;19940;-78
2022/09/28 04:24:22;;;;;;;;;;;14.20;99.90;;;;;;5095982;28;19959;-76
2022/09/28 04:26:48;;;;;;;;;;;14.20;99.90;;;;;;5094657;28;19923;-76
2022/09/28 04:29:17;;;;;;;;;;;14.20;99.90;;;;;;5096479;28;19918;-78
2022/09/28 04:31:48;;;;;;;;;;;14.20;99.90;;;;;;5094505;28;19933;-77
2022/09/28 04:34:16;;;;;;;;;;;14.30;99.90;;;;;;5095782;28;19909;-78
2022/09/28 04:36:45;;;;;;;;;;;14.30;99.90;;;;;;5095686;28;19933;-78
2022/09/28 04:39:15;;;;;;;;;;;14.20;99.90;;;;;;5095911;28;19931;-79
2022/09/28 04:41:41;;;;;;;;;;;14.10;99.90;;;;;;5095600;28;19938;-78
2022/09/28 04:44:07;;;;;;;;;;;14.20;99.90;;;;;;5095508;28;19966;-80
2022/09/28 04:46:32;;;;;;;;;;;14.20;99.90;;;;;;5095546;28;19995;-76
2022/09/28 04:48:58;;;;;;;;;;;14.20;99.90;;;;;;5095413;28;19912;-79
2022/09/28 04:51:24;;;;;;;;;;;14.30;99.90;;;;;;5095077;28;19927;-80
2022/09/28 04:53:49;;;;;;;;;;;14.30;99.90;;;;;;5095475;28;19908;-80
2022/09/28 04:56:15;;;;;;;;;;;14.20;99.90;;;;;;5095343;28;20364;-80
2022/09/28 04:58:41;;;;;;;;;;;14.00;99.90;;;;;;5095318;28;19915;-81
2022/09/28 05:01:09;;;;;;;;;;;13.90;99.90;;;;;;5095249;28;19912;-78
2022/09/28 05:03:34;;;;;;;;;;;13.90;99.90;;;;;;5095279;28;19990;-77
2022/09/28 05:06:00;;;;;;;;;;;13.80;99.90;;;;;;5095193;28;20400;-80
2022/09/28 05:08:26;;;;;;;;;;;13.80;99.90;;;;;;5095309;28;20361;-77
2022/09/28 05:10:59;;;;;;;;;;;13.80;99.90;;;;;;5095210;28;20002;-77
2022/09/28 05:13:25;;;;;;;;;;;13.80;99.90;;;;;;5094982;28;20364;-77
2022/09/28 05:15:54;;;;;;;;;;;13.90;99.90;;;;;;5094928;28;19957;-81
2022/09/28 05:18:20;;;;;;;;;;;14.00;99.90;;;;;;5095511;28;19908;-78
2022/09/28 05:20:45;;;;;;;;;;;14.00;99.90;;;;;;5093577;28;20360;-78
2022/09/28 05:23:11;;;;;;;;;;;14.00;99.90;;;;;;5095084;28;19931;-75
2022/09/28 05:25:40;;;;;;;;;;;14.00;99.90;;;;;;5094436;28;19908;-80
2022/09/28 05:28:06;;;;;;;;;;;14.00;99.90;;;;;;5095536;28;19915;-77
2022/09/28 05:30:32;;;;;;;;;;;13.90;99.90;;;;;;5094611;28;19912;-81
2022/09/28 05:32:57;;;;;;;;;;;13.90;99.90;;;;;;5094833;28;20291;-77
2022/09/28 05:35:23;;;;;;;;;;;13.90;99.90;;;;;;5094579;28;19908;-78
2022/09/28 05:37:49;;;;;;;;;;;13.90;99.90;;;;;;5094195;28;19961;-76
2022/09/28 05:40:15;;;;;;;;;;;13.90;99.90;;;;;;5094457;28;19943;-81
2022/09/28 05:42:40;;;;;;;;;;;13.90;99.90;;;;;;5094464;28;20291;-79
2022/09/28 05:45:07;;;;;;;;;;;13.90;99.90;;;;;;5094375;28;19908;-77
2022/09/28 05:47:36;;;;;;;;;;;13.80;99.90;;;;;;5094347;28;20361;-80
2022/09/28 05:50:01;;;;;;;;;;;13.80;99.90;;;;;;5093847;28;20326;-78
2022/09/28 05:52:27;;;;;;;;;;;13.80;99.90;;;;;;5092976;28;19908;-80
2022/09/28 05:54:52;;;;;;;;;;;13.80;99.90;;;;;;5094265;28;19956;-77
2022/09/28 05:57:18;;;;;;;;;;;13.80;99.90;;;;;;5094192;28;19997;-78
2022/09/28 05:59:43;;;;;;;;;;;13.80;99.90;;;;;;5094158;28;19991;-79
2022/09/28 06:02:09;;;;;;;;;;;13.80;99.90;;;;;;5093969;28;19931;-79
2022/09/28 06:04:35;;;;;;;;;;;13.90;99.90;;;;;;5092818;28;19964;-79
2022/09/28 06:07:00;;;;;;;;;;;13.90;99.90;;;;;;5092766;28;19908;-78
2022/09/28 06:09:26;;;;;;;;;;;13.90;99.90;;;;;;5093960;28;20318;-77
2022/09/28 06:11:51;;;;;;;;;;;13.90;99.90;;;;;;5092740;28;19908;-75
2022/09/28 06:14:17;;;;;;;;;;;13.90;99.90;;;;;;5094220;28;19914;-77
2022/09/28 06:16:42;;;;;;;;;;;13.80;99.90;;;;;;5093906;28;20261;-79
2022/09/28 06:19:08;;;;;;;;;;;13.80;99.90;;;;;;5093932;28;19937;-79
2022/09/28 06:21:34;;;;;;;;;;;13.70;99.90;;;;;;5093894;28;19915;-76
2022/09/28 06:24:00;;;;;;;;;;;13.70;99.90;;;;;;5093723;28;19990;-76
2022/09/28 06:26:26;;;;;;;;;;;13.80;99.90;;;;;;5094008;28;19915;-80
2022/09/28 06:28:52;;;;;;;;;;;13.90;99.90;;;;;;5094268;28;20329;-77
2022/09/28 06:31:22;;;;;;;;;;;13.90;99.90;;;;;;5093927;28;19915;-80
2022/09/28 06:33:51;;;;;;;;;;;13.90;99.90;;;;;;5094054;28;20381;-81
2022/09/28 06:36:17;;;;;;;;;;;13.90;99.90;;;;;;5093791;28;20367;-79
2022/09/28 06:38:42;;;;;;;;;;;13.90;99.90;;;;;;5093998;28;19915;-79
2022/09/28 06:41:09;;;;;;;;;;;13.90;99.90;;;;;;5093851;28;20327;-80
2022/09/28 06:43:38;;;;;;;;;;;13.80;99.90;;;;;;5093699;28;19998;-79
2022/09/28 06:46:04;;;;;;;;;;;13.70;99.90;;;;;;5093593;28;19915;-78
2022/09/28 06:48:32;;;;;;;;;;;13.80;99.90;;;;;;5092395;28;19915;-80
2022/09/28 06:50:58;;;;;;;;;;;13.80;99.90;;;;;;5095072;28;19920;-78
2022/09/28 06:53:23;;;;;;;;;;;13.80;99.90;;;;;;5097737;28;19920;-79
2022/09/28 06:55:49;;;;;;;;;;;13.90;99.90;;;;;;5097723;28;19973;-81
2022/09/28 06:58:16;;;;;;;;;;;14.00;99.90;;;;;;5097623;28;20364;-80
2022/09/28 07:00:42;;;;;;;;;;;14.00;99.90;;;;;;5097669;28;19912;-79
2022/09/28 07:03:10;;;;;;;;;;;14.10;99.90;;;;;;5097520;28;19981;-79
2022/09/28 07:05:40;;;;;;;;;;;14.30;99.90;;;;;;5097509;28;19933;-78
2022/09/28 07:08:05;;;;;;;;;;;14.30;99.90;;;;;;5097770;28;20036;-77
2022/09/28 07:10:31;;;;;;;;;;;14.40;99.90;;;;;;5097525;28;19912;-76
2022/09/28 07:13:00;;;;;;;;;;;14.40;99.90;;;;;;5097333;28;19915;-78
2022/09/28 07:15:26;;;;;;;;;;;14.40;99.90;;;;;;5097292;28;20364;-79
2022/09/28 07:18:01;;;;;;;;;;;14.40;99.90;;;;;;5097731;28;19962;-76
2022/09/28 07:20:32;;;;;;;;;;;14.40;99.90;;;;;;5097325;28;19954;-77
2022/09/28 07:22:59;;;;;;;;;;;14.50;99.90;;;;;;5096376;28;19908;-77
2022/09/28 07:25:24;;;;;;;;;;;14.60;99.90;;;;;;5097144;28;19991;-80
2022/09/28 07:27:54;;;;;;;;;;;14.70;99.90;;;;;;5097604;28;19951;-77
2022/09/28 07:30:19;;;;;;;;;;;14.70;99.90;;;;;;5097224;28;19912;-79
2022/09/28 07:32:45;;;;;;;;;;;14.70;99.90;;;;;;5097029;28;19915;-78
2022/09/28 07:35:11;;;;;;;;;;;14.80;99.90;;;;;;5096888;28;19909;-78
2022/09/28 07:37:37;;;;;;;;;;;14.80;99.90;;;;;;5096997;28;19908;-77
2022/09/28 07:42:48;;;;;;;;;;;14.80;99.90;;;;;;5096765;28;19915;-80
2022/09/28 07:45:13;;;;;;;;;;;14.70;99.90;;;;;;5096750;28;19908;-79
2022/09/28 07:47:39;;;;;;;;;;;14.70;99.90;;;;;;5096775;28;19958;-77
2022/09/28 07:50:05;;;;;;;;;;;14.60;99.90;;;;;;5096437;28;19920;-77
2022/09/28 07:52:33;;;;;;;;;;;14.70;99.90;;;;;;5096649;28;19908;-80
2022/09/28 07:54:59;;;;;;;;;;;14.60;99.90;;;;;;5095261;28;19952;-79
2022/09/28 07:57:24;;;;;;;;;;;14.60;99.90;;;;;;5096830;28;19943;-79
2022/09/28 07:59:52;;;;;;;;;;;14.50;99.90;;;;;;5095134;28;20340;-81
2022/09/28 08:02:18;;;;;;;;;;;14.40;99.90;;;;;;5094803;28;19916;-80
2022/09/28 08:04:48;;;;;;;;;;;14.40;99.90;;;;;;5096370;28;19915;-80
2022/09/28 08:07:17;;;;;;;;;;;14.40;99.90;;;;;;5096535;28;19916;-80
2022/09/28 08:09:43;;;;;;;;;;;14.30;99.90;;;;;;5096225;28;19912;-79
2022/09/28 08:12:09;;;;;;;;;;;14.50;99.90;;;;;;5096196;28;20280;-78
2022/09/28 08:14:36;;;;;;;;;;;14.60;99.90;;;;;;5096153;28;19999;-79
2022/09/28 08:17:02;;;;;;;;;;;14.90;99.90;;;;;;5096287;28;19934;-81
2022/09/28 08:22:12;;;;;;;;;;;14.50;99.90;;;;;;5095855;28;19916;-77
2022/09/28 08:24:38;;;;;;;;;;;14.30;99.90;;;;;;5094701;28;19908;-78
2022/09/28 08:27:03;;;;;;;;;;;14.40;99.90;;;;;;5095817;28;19968;-80
2022/09/28 08:29:30;;;;;;;;;;;14.50;99.90;;;;;;5096242;28;19916;-78
2022/09/28 08:31:57;;;;;;;;;;;14.60;99.90;;;;;;5073743;28;19916;-78
2022/09/28 08:34:23;;;;;;;;;;;14.80;99.90;;;;;;5094459;28;19931;-80
2022/09/28 08:36:49;;;;;;;;;;;14.90;99.90;;;;;;5095384;28;20364;-80
2022/09/28 08:39:15;;;;;;;;;;;15.10;99.90;;;;;;5095294;28;19908;-78
2022/09/28 08:41:41;;;;;;;;;;;15.30;99.90;;;;;;5078099;28;19909;-79
2022/09/28 08:44:22;;;;;;;;;;;15.40;99.90;;;;;;5075085;28;19935;-79
2022/09/28 08:46:51;;;;;;;;;;;15.60;99.90;;;;;;5074692;28;19908;-77
2022/09/28 08:49:33;;;;;;;;;;;15.50;99.90;;;;;;5073568;28;19912;-78
2022/09/28 08:51:59;;;;;;;;;;;15.60;99.90;;;;;;5074297;28;19924;-79
2022/09/28 08:54:32;;;;;;;;;;;15.50;99.90;;;;;;5074856;28;19998;-80
2022/09/28 08:57:01;;;;;;;;;;;15.50;99.90;;;;;;5074784;28;20007;-78
2022/09/28 08:59:42;;;;;;;;;;;15.50;99.90;;;;;;5074782;28;19909;-79
2022/09/28 09:02:18;;;;;;;;;;;15.60;99.90;;;;;;5093390;28;19919;-77
2022/09/28 09:04:48;;;;;;;;;;;15.70;99.90;;;;;;5094544;28;19957;-80
2022/09/28 09:07:28;;;;;;;;;;;15.90;99.90;;;;;;5094878;28;19912;-76
2022/09/28 09:10:02;;;;;;;;;;;15.80;99.90;;;;;;5094337;28;19999;-78
2022/09/28 09:12:28;;;;;;;;;;;15.80;99.90;;;;;;5094519;28;19908;-76
2022/09/28 09:15:14;;;;;;;;;;;15.80;99.90;;;;;;5094271;28;20364;-78
2022/09/28 09:17:57;;;;;;;;;;;15.70;99.90;;;;;;5094061;28;20388;-79
2022/09/28 09:20:37;;;;;;;;;;;16.00;99.90;;;;;;5094385;28;19934;-78
2022/09/28 09:23:11;;;;;;;;;;;16.30;99.90;;;;;;5094495;28;19912;-76
2022/09/28 09:25:37;;;;;;;;;;;16.40;99.90;;;;;;5094479;28;19908;-76
2022/09/28 09:28:06;;;;;;;;;;;16.90;99.90;;;;;;5095005;28;19908;-77
2022/09/28 09:30:54;;;;;;;;;;;16.90;99.90;;;;;;5092291;28;19919;-77
2022/09/28 09:33:27;;;;;;;;;;;16.70;99.90;;;;;;5083875;28;20379;-76
2022/09/28 09:36:16;;;;;;;;;;;16.80;99.90;;;;;;5094240;28;19908;-79
2022/09/28 09:38:49;;;;;;;;;;;16.80;99.90;;;;;;5085823;28;19909;-77
2022/09/28 09:41:20;;;;;;;;;;;16.70;99.90;;;;;;5083526;28;20384;-80
2022/09/28 09:44:00;;;;;;;;;;;16.60;99.90;;;;;;5073953;28;20394;-79
2022/09/28 09:46:33;;;;;;;;;;;16.40;99.90;;;;;;5073643;28;19954;-77
2022/09/28 09:49:10;;;;;;;;;;;16.20;99.90;;;;;;5073706;28;20300;-77
2022/09/28 09:51:35;;;;;;;;;;;16.20;99.90;;;;;;5073148;28;19979;-78
2022/09/28 09:54:05;;;;;;;;;;;16.10;99.90;;;;;;5072389;28;19940;-79
2022/09/28 09:56:39;;;;;;;;;;;16.00;99.90;;;;;;5073736;28;19912;-79
2022/09/28 09:59:07;;;;;;;;;;;15.90;99.90;;;;;;5073685;28;19957;-80
2022/09/28 10:01:34;;;;;;;;;;;15.70;99.90;;;;;;5073369;28;20376;-80
2022/09/28 10:04:01;;;;;;;;;;;15.70;99.90;;;;;;5073536;28;19908;-77
2022/09/28 10:06:32;;;;;;;;;;;16.00;99.90;;;;;;5073659;28;19916;-76
2022/09/28 10:09:07;;;;;;;;;;;16.10;99.90;;;;;;5073374;28;19908;-80
2022/09/28 10:11:41;;;;;;;;;;;16.10;99.90;;;;;;5073201;28;19973;-78
2022/09/28 10:14:10;;;;;;;;;;;16.00;99.90;;;;;;5073632;28;19915;-80
2022/09/28 10:16:35;;;;;;;;;;;15.80;99.90;;;;;;5071987;28;19909;-78
2022/09/28 10:19:02;;;;;;;;;;;15.80;99.90;;;;;;5072048;28;20328;-78
2022/09/28 10:21:28;;;;;;;;;;;15.80;99.90;;;;;;5073013;28;19946;-79
2022/09/28 10:23:57;;;;;;;;;;;15.80;99.90;;;;;;5073292;28;19963;-79
2022/09/28 10:26:26;;;;;;;;;;;15.80;99.90;;;;;;5072063;28;19908;-80
2022/09/28 10:28:56;;;;;;;;;;;16.00;99.90;;;;;;5091752;28;19915;-79
2022/09/28 10:31:41;;;;;;;;;;;16.00;99.90;;;;;;5093116;28;19908;-79
2022/09/28 10:34:09;;;;;;;;;;;16.20;99.90;;;;;;5093335;28;19908;-79
2022/09/28 10:36:54;;;;;;;;;;;16.50;99.90;;;;;;5093347;28;19912;-77
2022/09/28 10:39:38;;;;;;;;;;;16.70;99.90;;;;;;5093487;28;19920;-79
2022/09/28 10:42:08;;;;;;;;;;;16.70;99.90;;;;;;5091598;28;19915;-79
2022/09/28 10:44:47;;;;;;;;;;;16.60;99.90;;;;;;5093300;28;19962;-80
2022/09/28 10:47:14;;;;;;;;;;;16.90;99.90;;;;;;5093510;28;19916;-77
2022/09/28 10:49:42;;;;;;;;;;;17.10;99.90;;;;;;5092942;28;19985;-77
2022/09/28 10:52:27;;;;;;;;;;;17.70;99.90;;;;;;5092868;28;20303;-78
2022/09/28 10:54:53;;;;;;;;;;;18.40;99.90;;;;;;5093089;28;20369;-81
2022/09/28 10:57:31;;;;;;;;;;;18.80;99.90;;;;;;5093258;28;19912;-79
2022/09/28 10:59:57;;;;;;;;;;;18.70;99.90;;;;;;5093296;28;19953;-76
2022/09/28 11:02:24;;;;;;;;;;;18.20;99.90;;;;;;5092775;28;20292;-80
2022/09/28 11:04:55;;;;;;;;;;;17.80;99.90;;;;;;5093023;28;19957;-81
2022/09/28 11:07:23;;;;;;;;;;;17.90;99.90;;;;;;5093133;28;20372;-76
2022/09/28 11:09:49;;;;;;;;;;;17.90;99.90;;;;;;5091674;28;20311;-78
2022/09/28 11:12:19;;;;;;;;;;;17.30;99.90;;;;;;5092591;28;19908;-78
2022/09/28 11:14:47;;;;;;;;;;;17.00;99.90;;;;;;5093071;28;19912;-79
2022/09/28 11:17:16;;;;;;;;;;;17.00;99.90;;;;;;5093286;28;20375;-79
2022/09/28 11:19:42;;;;;;;;;;;16.60;99.90;;;;;;5093030;28;19994;-76
2022/09/28 11:22:27;;;;;;;;;;;16.10;99.90;;;;;;5092583;28;19912;-79
2022/09/28 11:25:11;;;;;;;;;;;16.20;99.90;;;;;;5092942;28;19916;-80
2022/09/28 11:27:37;;;;;;;;;;;16.50;99.90;;;;;;5091496;28;20006;-77
2022/09/28 11:30:03;;;;;;;;;;;16.50;99.90;;;;;;5093450;28;19959;-80
2022/09/28 11:32:30;;;;;;;;;;;16.60;99.90;;;;;;5092526;28;20298;-77
2022/09/28 11:34:59;;;;;;;;;;;16.70;99.90;;;;;;5092649;28;19908;-78
2022/09/28 11:37:34;;;;;;;;;;;17.10;99.90;;;;;;5095349;28;19956;-81
2022/09/28 11:40:03;;;;;;;;;;;17.60;99.90;;;;;;5095397;28;19991;-77
2022/09/28 11:42:41;;;;;;;;;;;18.00;99.90;;;;;;5078941;28;19916;-79
2022/09/28 11:45:10;;;;;;;;;;;18.00;99.90;;;;;;5076053;28;19920;-79
2022/09/28 11:47:41;;;;;;;;;;;18.20;99.90;;;;;;5076158;28;19959;-81
2022/09/28 11:50:19;;;;;;;;;;;18.10;99.90;;;;;;5075796;28;19947;-78
2022/09/28 11:52:49;;;;;;;;;;;18.30;99.90;;;;;;5075483;28;19915;-80
2022/09/28 11:55:21;;;;;;;;;;;18.20;99.90;;;;;;5076026;28;20003;-78
2022/09/28 11:57:55;;;;;;;;;;;18.00;99.90;;;;;;5075814;28;20414;-81
2022/09/28 12:00:22;;;;;;;;;;;18.20;99.90;;;;;;5076245;28;19909;-79
2022/09/28 12:02:54;;;;;;;;;;;18.20;99.90;;;;;;5075382;28;19916;-76
2022/09/28 12:05:33;;;;;;;;;;;18.10;99.90;;;;;;5075781;28;19912;-81
2022/09/28 12:08:03;;;;;;;;;;;17.80;99.90;;;;;;5075793;28;20316;-76
2022/09/28 12:10:28;;;;;;;;;;;17.30;99.90;;;;;;5075354;28;19913;-79
2022/09/28 12:13:00;;;;;;;;;;;16.80;99.90;;;;;;5075110;28;19958;-81
2022/09/28 12:15:29;;;;;;;;;;;16.80;99.90;;;;;;5074362;28;20365;-80
2022/09/28 12:18:02;;;;;;;;;;;17.20;99.90;;;;;;5075602;28;19908;-76
2022/09/28 12:20:29;;;;;;;;;;;17.60;99.90;;;;;;5075660;28;19908;-81
2022/09/28 12:22:58;;;;;;;;;;;17.80;99.90;;;;;;5074957;28;19908;-78
2022/09/28 12:25:24;;;;;;;;;;;17.90;99.90;;;;;;5075503;28;19909;-81
2022/09/28 12:28:00;;;;;;;;;;;18.10;99.90;;;;;;5075387;28;19912;-80
2022/09/28 12:30:29;;;;;;;;;;;18.30;99.90;;;;;;5075830;28;19912;-81
2022/09/28 12:33:16;;;;;;;;;;;18.50;99.90;;;;;;5074813;28;20335;-78
2022/09/28 12:35:52;;;;;;;;;;;18.60;99.90;;;;;;5075436;28;20418;-77
2022/09/28 12:38:36;;;;;;;;;;;19.00;99.90;;;;;;5075122;28;19954;-79
2022/09/28 12:41:01;;;;;;;;;;;18.50;99.90;;;;;;5075056;28;20327;-80
2022/09/28 12:43:53;;;;;;;;;;;18.10;99.90;;;;;;5075085;28;19908;-79
2022/09/28 12:46:37;;;;;;;;;;;17.90;99.90;;;;;;5056102;28;19969;-80
2022/09/28 12:49:05;;;;;;;;;;;17.80;99.90;;;;;;5073779;28;20003;-78
2022/09/28 12:51:34;;;;;;;;;;;17.70;99.90;;;;;;5074377;28;20377;-79
2022/09/28 12:54:05;;;;;;;;;;;18.10;99.90;;;;;;5074806;28;19936;-80
2022/09/28 12:56:40;;;;;;;;;;;17.90;99.90;;;;;;5074844;28;20376;-77
2022/09/28 12:59:24;;;;;;;;;;;17.90;99.90;;;;;;5074787;28;19999;-79
2022/09/28 13:02:06;;;;;;;;;;;19.10;99.90;;;;;;5074530;28;19919;-80
2022/09/28 13:04:50;;;;;;;;;;;22.10;99.90;;;;;;5074620;28;19912;-78
2022/09/28 13:07:25;;;;;;;;;;;27.30;99.90;;;;;;5074614;28;19916;-82
2022/09/28 13:09:53;;;;;;;;;;;26.60;95.00;;;;;;5074405;28;19920;-79
2022/09/28 13:12:24;;;;;;;;;;;27.90;96.90;;;;;;5073939;28;19912;-79
2022/09/28 13:15:01;;;;;;;;;;;30.20;83.10;;;;;;5074546;28;19965;-77
2022/09/28 13:17:42;;;;;;;;;;;27.80;83.30;;;;;;5074402;28;19908;-78
2022/09/28 13:20:19;;;;;;;;;;;29.10;86.40;;;;;;5074274;28;19913;-82
2022/09/28 13:22:45;;;;;;;;;;;26.80;81.30;;;;;;5073776;28;19908;-78
2022/09/28 13:25:13;;;;;;;;;;;24.40;84.90;;;;;;5074216;28;20326;-78
2022/09/28 13:27:41;;;;;;;;;;;22.80;89.10;;;;;;5074233;28;19962;-80
2022/09/28 13:30:07;;;;;;;;;;;21.90;91.60;;;;;;5074686;28;19935;-78
2022/09/28 13:32:34;;;;;;;;;;;20.80;93.90;;;;;;5073664;28;19908;-78
2022/09/28 13:35:01;;;;;;;;;;;20.00;96.30;;;;;;5073914;28;19935;-80
2022/09/28 13:37:27;;;;;;;;;;;19.60;99.90;;;;;;5073965;28;19908;-78
2022/09/28 13:39:55;;;;;;;;;;;20.20;99.90;;;;;;5073885;28;20287;-79
2022/09/28 13:42:23;;;;;;;;;;;23.40;99.00;;;;;;5073518;28;19909;-78
2022/09/28 13:44:49;;;;;;;;;;;27.70;93.60;;;;;;5073785;28;19999;-80
2022/09/28 13:47:32;;;;;;;;;;;33.60;82.60;;;;;;5073892;28;19967;-77
2022/09/28 13:50:04;;;;;;;;;;;33.00;62.40;;;;;;5073738;28;20369;-78
2022/09/28 13:52:35;;;;;;;;;;;28.60;68.00;;;;;;5073388;28;19990;-78
2022/09/28 13:55:19;;;;;;;;;;;27.00;71.90;;;;;;5073850;28;19931;-77
2022/09/28 13:58:14;;;;;;;;;;;28.80;71.00;;;;;;5073500;28;20319;-79
2022/09/28 14:00:45;;;;;;;;;;;26.90;69.60;;;;;;5064004;28;19950;-79
2022/09/28 14:03:32;;;;;;;;;;;24.50;76.50;;;;;;5073147;28;19931;-77
2022/09/28 14:06:17;;;;;;;;;;;22.50;87.60;;;;;;5073801;28;19908;-78
2022/09/28 14:08:43;;;;;;;;;;;21.30;95.50;;;;;;5073499;28;19912;-81
2022/09/28 14:11:35;;;;;;;;;;;20.90;97.60;;;;;;5074660;28;19913;-79
2022/09/28 14:14:07;;;;;;;;;;;21.30;99.90;;;;;;5090674;28;19912;-81
2022/09/28 14:16:42;;;;;;;;;;;24.60;94.80;;;;;;5093634;28;20391;-82
2022/09/28 14:19:14;;;;;;;;;;;23.70;92.80;;;;;;5093815;28;20373;-78
2022/09/28 14:21:51;;;;;;;;;;;24.10;93.50;;;;;;5093154;28;19912;-78
2022/09/28 14:24:22;;;;;;;;;;;23.80;91.80;;;;;;5093633;28;19909;-80
2022/09/28 14:27:06;;;;;;;;;;;23.40;92.50;;;;;;5093601;28;19934;-80
2022/09/28 14:29:36;;;;;;;;;;;22.50;93.40;;;;;;5094056;28;19912;-80
2022/09/28 14:32:21;;;;;;;;;;;23.20;94.00;;;;;;5093283;28;19916;-78
2022/09/28 14:34:53;;;;;;;;;;;23.10;93.00;;;;;;5093505;28;19916;-78
2022/09/28 14:43:19;;;;;;;;;;;24.50;90.20;;;;;;5093020;28;19942;-79